Time;durP1;ratioP1;P1;durP2;ratioP2;P2;SDS_P1;SDS_P2;PMS_P1;PMS_P2;Temp;Humidity;BMP_temperature;BMP_pressure;BME280_temperature;BME280_humidity;BME280_pressure;Samples;Min_cycle;Max_cycle;Signal;HPM_P1;HPM_P2
2022/07/19 00:02:05;;;;;;;5.68;3.75;;;;;;;19.72;65.96;98557.16;5011099;28;20463;-73
2022/07/19 00:04:31;;;;;;;5.13;4.15;;;;;;;19.71;65.98;98560.25;5011516;28;20037;-74
2022/07/19 00:06:57;;;;;;;6.50;3.88;;;;;;;19.57;66.25;98554.19;4993658;28;20064;-74
2022/07/19 00:09:24;;;;;;;5.80;4.18;;;;;;;19.51;66.97;98556.34;5011159;28;20026;-73
2022/07/19 00:11:49;;;;;;;6.25;4.18;;;;;;;19.40;67.49;98549.56;5010762;28;20022;-73
2022/07/19 00:14:15;;;;;;;10.13;4.30;;;;;;;19.43;67.40;98548.09;5010872;28;20034;-74
2022/07/19 00:16:40;;;;;;;8.48;3.67;;;;;;;19.19;68.06;98552.31;4993232;28;20053;-73
2022/07/19 00:19:06;;;;;;;12.27;3.95;;;;;;;19.11;68.49;98557.91;5010580;28;20018;-74
2022/07/19 00:21:31;;;;;;;7.60;3.65;;;;;;;19.07;68.64;98560.56;5010810;28;20026;-74
2022/07/19 00:23:56;;;;;;;5.28;3.58;;;;;;;18.99;68.82;98555.88;5011042;28;20034;-74
2022/07/19 00:26:22;;;;;;;4.32;3.45;;;;;;;18.87;69.66;98546.66;5011095;28;20034;-74
2022/07/19 00:28:47;;;;;;;7.57;4.05;;;;;;;18.97;69.75;98557.34;5011162;28;20022;-75
2022/07/19 00:31:13;;;;;;;5.18;3.72;;;;;;;18.91;70.01;98556.75;5014109;28;20386;-73
2022/07/19 00:33:38;;;;;;;7.15;3.80;;;;;;;18.90;70.32;98555.09;4993898;28;20118;-73
2022/07/19 00:36:04;;;;;;;5.55;3.75;;;;;;;18.87;70.26;98553.00;5011046;28;20046;-73
2022/07/19 00:38:29;;;;;;;7.78;4.30;;;;;;;18.85;70.89;98555.31;5010765;28;20109;-74
2022/07/19 00:40:55;;;;;;;8.23;4.82;;;;;;;18.84;71.00;98561.19;5010720;28;20033;-74
2022/07/19 00:43:20;;;;;;;6.50;3.85;;;;;;;18.88;71.22;98551.88;5010667;28;20022;-74
2022/07/19 00:45:45;;;;;;;7.93;4.15;;;;;;;18.90;71.12;98557.88;5010362;28;20030;-74
2022/07/19 00:48:12;;;;;;;5.80;3.92;;;;;;;18.92;71.43;98561.13;5010748;28;20034;-74
2022/07/19 00:50:37;;;;;;;6.70;3.70;;;;;;;18.85;71.95;98560.03;5010484;28;20014;-74
2022/07/19 00:53:05;;;;;;;9.75;3.97;;;;;;;18.80;72.23;98558.25;5010479;28;20060;-73
2022/07/19 00:55:35;;;;;;;7.93;3.80;;;;;;;18.85;72.40;98560.84;5010403;28;20395;-74
2022/07/19 00:58:01;;;;;;;5.55;3.85;;;;;;;18.79;72.62;98556.66;5010487;28;20463;-74
2022/07/19 01:00:30;;;;;;;6.25;3.60;;;;;;;18.81;72.63;98562.66;5010582;28;20072;-74
2022/07/19 01:02:55;;;;;;;4.60;3.63;;;;;;;18.82;72.21;98564.31;5010368;28;20036;-74
2022/07/19 01:05:20;;;;;;;4.15;3.63;;;;;;;18.84;72.35;98553.69;5010828;28;20116;-74
2022/07/19 01:07:46;;;;;;;5.03;3.63;;;;;;;18.71;72.23;98552.75;5010186;28;20029;-75
2022/07/19 01:10:14;;;;;;;6.85;3.60;;;;;;;18.67;73.22;98560.09;4992890;28;20080;-75
2022/07/19 01:12:41;;;;;;;5.82;3.85;;;;;;;18.61;73.41;98547.59;4992598;28;20053;-74
2022/07/19 01:15:25;;;;;;;6.35;4.00;;;;;;;18.54;73.35;98543.72;5009747;28;20475;-74
2022/07/19 01:17:51;;;;;;;4.07;3.38;;;;;;;18.59;73.69;98549.88;5010026;28;20125;-74
2022/07/19 01:20:17;;;;;;;7.10;3.88;;;;;;;18.64;73.37;98546.91;4992840;28;20117;-72
2022/07/19 01:22:43;;;;;;;4.63;3.58;;;;;;;18.67;73.98;98553.75;5010442;28;20049;-70
2022/07/19 01:25:10;;;;;;;5.80;3.67;;;;;;;18.70;74.38;98553.91;5013920;28;20030;-70
2022/07/19 01:27:44;;;;;;;6.13;3.65;;;;;;;18.50;75.74;98556.63;5013966;28;20037;-70
2022/07/19 01:30:14;;;;;;;4.45;3.50;;;;;;;18.25;77.27;98546.41;5013810;28;20030;-69
2022/07/19 01:32:40;;;;;;;5.25;3.50;;;;;;;17.98;78.62;98556.72;5013953;28;20597;-70
2022/07/19 01:35:07;;;;;;;5.47;3.72;;;;;;;18.00;79.11;98551.69;5013972;28;20050;-70
2022/07/19 01:37:33;;;;;;;5.75;3.83;;;;;;;17.80;80.51;98551.53;5013749;28;20022;-70
2022/07/19 01:39:59;;;;;;;5.47;3.90;;;;;;;17.77;81.46;98549.44;5013907;28;20041;-70
2022/07/19 01:42:24;;;;;;;9.20;4.15;;;;;;;17.79;81.93;98544.41;5013971;28;20033;-71
2022/07/19 01:44:50;;;;;;;6.80;3.97;;;;;;;17.77;82.44;98544.72;5013749;28;20041;-70
2022/07/19 01:47:15;;;;;;;6.30;4.10;;;;;;;17.68;83.32;98535.63;5013493;28;20042;-70
2022/07/19 01:49:41;;;;;;;6.35;4.13;;;;;;;17.67;83.66;98542.28;5013444;28;20037;-70
2022/07/19 01:52:07;;;;;;;4.10;3.30;;;;;;;17.64;84.02;98541.00;5013616;28;20036;-70
2022/07/19 01:54:32;;;;;;;6.63;3.90;;;;;;;17.60;84.51;98531.72;5013550;28;20133;-70
2022/07/19 01:56:58;;;;;;;4.82;3.70;;;;;;;17.61;84.72;98533.34;5013524;28;20033;-71
2022/07/19 01:59:24;;;;;;;5.97;3.92;;;;;;;17.57;84.86;98532.34;5013455;28;20022;-70
2022/07/19 02:01:49;;;;;;;4.55;3.70;;;;;;;17.58;85.07;98530.41;5013403;28;20475;-70
2022/07/19 02:04:14;;;;;;;6.30;4.30;;;;;;;17.38;86.38;98533.81;5013480;28;20092;-70
2022/07/19 02:06:40;;;;;;;4.10;3.70;;;;;;;17.40;86.62;98528.78;5013234;28;20116;-70
2022/07/19 02:09:05;;;;;;;5.72;3.95;;;;;;;17.51;85.88;98525.34;5013343;28;20447;-70
2022/07/19 02:11:36;;;;;;;4.85;3.72;;;;;;;17.41;86.32;98533.16;5013203;28;20530;-70
2022/07/19 02:14:04;;;;;;;5.03;4.03;;;;;;;17.40;86.39;98526.81;5013220;28;20125;-70
2022/07/19 02:16:29;;;;;;;8.23;3.97;;;;;;;17.41;86.54;98528.47;5012782;28;20862;-71
2022/07/19 02:18:54;;;;;;;6.05;3.60;;;;;;;17.46;86.50;98541.28;5012953;28;20072;-70
2022/07/19 02:21:19;;;;;;;4.85;3.90;;;;;;;17.51;86.32;98541.16;5013050;28;20025;-70
2022/07/19 02:23:45;;;;;;;8.00;4.22;;;;;;;17.56;86.12;98538.25;5012861;28;20109;-70
2022/07/19 02:26:11;;;;;;;6.82;3.80;;;;;;;17.44;86.44;98538.06;5012969;28;20041;-70
2022/07/19 02:28:36;;;;;;;6.93;3.75;;;;;;;17.35;87.33;98528.94;5012873;28;20109;-70
2022/07/19 02:31:01;;;;;;;7.07;3.80;;;;;;;17.35;87.55;98534.47;5012797;28;20383;-70
2022/07/19 02:33:27;;;;;;;9.98;4.10;;;;;;;17.32;87.96;98527.63;5013064;28;20026;-70
2022/07/19 02:35:52;;;;;;;5.15;3.95;;;;;;;17.33;88.06;98531.19;5012984;28;20049;-69
2022/07/19 02:38:17;;;;;;;4.55;3.80;;;;;;;17.46;87.25;98535.75;5012442;28;20114;-70
2022/07/19 02:40:42;;;;;;;5.25;3.95;;;;;;;17.50;87.05;98531.22;5012669;28;20030;-70
2022/07/19 02:43:08;;;;;;;7.55;4.28;;;;;;;17.53;86.85;98531.38;5012748;28;20026;-71
2022/07/19 02:45:33;;;;;;;6.47;4.53;;;;;;;17.45;87.73;98536.88;5012639;28;20029;-70
2022/07/19 02:47:58;;;;;;;4.93;3.90;;;;;;;17.21;89.67;98531.03;5012989;28;20056;-70
2022/07/19 02:50:24;;;;;;;6.75;4.10;;;;;;;17.14;90.63;98532.34;5012445;28;20038;-70
2022/07/19 02:52:50;;;;;;;6.95;4.45;;;;;;;17.00;91.77;98528.91;4990838;28;20960;-70
2022/07/19 02:55:15;;;;;;;6.30;4.57;;;;;;;16.96;92.00;98527.94;4992772;28;20027;-70
2022/07/19 02:57:40;;;;;;;6.63;4.47;;;;;;;16.91;92.50;98536.38;5001032;28;20032;-70
2022/07/19 03:00:09;;;;;;;5.65;4.15;;;;;;;16.86;92.78;98528.22;5012207;28;20030;-70
2022/07/19 03:02:34;;;;;;;4.72;3.60;;;;;;;16.84;93.15;98530.50;5012079;28;20022;-70
2022/07/19 03:05:00;;;;;;;5.78;3.80;;;;;;;16.73;94.24;98542.19;5012311;28;20372;-70
2022/07/19 03:07:25;;;;;;;5.50;4.25;;;;;;;16.66;95.49;98537.13;5011938;28;20058;-70
2022/07/19 03:09:50;;;;;;;5.15;3.92;;;;;;;16.66;95.51;98539.06;5009600;28;20033;-70
2022/07/19 03:12:16;;;;;;;6.63;4.15;;;;;;;16.69;94.83;98539.25;5011522;28;20045;-70
2022/07/19 03:14:41;;;;;;;7.10;3.95;;;;;;;16.60;96.11;98541.19;5011851;28;20080;-69
2022/07/19 03:17:06;;;;;;;5.15;3.63;;;;;;;16.56;96.03;98542.94;5011596;28;20030;-68
2022/07/19 03:19:32;;;;;;;9.82;4.45;;;;;;;16.55;95.88;98544.88;5011670;28;20121;-68
2022/07/19 03:21:57;;;;;;;5.28;3.67;;;;;;;16.49;96.93;98545.31;5011724;28;20057;-69
2022/07/19 03:24:22;;;;;;;6.82;4.25;;;;;;;16.60;95.91;98543.94;5011496;28;20136;-69
2022/07/19 03:26:48;;;;;;;4.10;3.33;;;;;;;16.77;94.51;98557.78;5011677;28;20505;-69
2022/07/19 03:29:14;;;;;;;6.13;4.20;;;;;;;16.86;93.30;98555.84;5011564;28;20105;-69
2022/07/19 03:31:39;;;;;;;5.50;4.13;;;;;;;17.03;92.09;98561.44;5011358;28;20022;-69
2022/07/19 03:34:05;;;;;;;7.10;3.70;;;;;;;16.98;92.12;98556.03;5011416;28;20034;-67
2022/07/19 03:36:30;;;;;;;6.15;4.10;;;;;;;17.01;92.25;98557.34;5010183;28;20052;-68
2022/07/19 03:38:56;;;;;;;6.93;3.92;;;;;;;17.14;91.19;98556.41;5011277;28;20032;-68
2022/07/19 03:41:21;;;;;;;4.32;3.47;;;;;;;17.22;90.96;98546.50;5013418;28;20033;-68
2022/07/19 03:43:47;;;;;;;4.95;3.60;;;;;;;17.48;88.89;98550.06;5014369;28;20509;-71
2022/07/19 03:46:12;;;;;;;8.48;3.90;;;;;;;17.83;86.19;98554.47;5014653;28;20084;-68
2022/07/19 03:48:38;;;;;;;5.45;3.75;;;;;;;18.36;82.42;98555.97;5011742;28;20026;-67
2022/07/19 03:51:03;;;;;;;5.68;3.97;;;;;;;18.78;79.71;98562.50;5011465;28;20060;-68
2022/07/19 03:53:29;;;;;;;4.72;3.78;;;;;;;19.16;76.92;98566.03;4993646;28;20018;-68
2022/07/19 03:55:54;;;;;;;4.03;3.33;;;;;;;19.14;74.47;98563.59;5011154;28;20471;-68
2022/07/19 03:58:19;;;;;;;8.90;3.55;;;;;;;19.37;73.25;98561.31;5010962;28;20036;-69
2022/07/19 04:00:45;;;;;;;6.18;3.95;;;;;;;19.59;71.90;98569.34;5010967;28;20386;-68
2022/07/19 04:03:11;;;;;;;5.43;3.70;;;;;;;20.26;68.50;98573.81;5011021;28;20026;-68
2022/07/19 04:05:37;;;;;;;9.10;3.10;;;;;;;20.61;66.32;98577.00;5011128;28;20490;-68
2022/07/19 04:08:02;;;;;;;4.60;3.28;;;;;;;20.56;66.08;98582.78;5010815;28;20038;-68
2022/07/19 04:10:28;;;;;;;6.93;3.33;;;;;;;21.17;63.40;98586.44;5011093;28;20030;-68
2022/07/19 04:12:53;;;;;;;9.13;3.90;;;;;;;20.38;66.10;98595.25;5010882;28;20022;-68
2022/07/19 04:15:18;;;;;;;5.00;4.03;;;;;;;19.48;70.05;98589.53;5010784;28;20034;-69
2022/07/19 04:17:44;;;;;;;4.28;3.40;;;;;;;19.02;73.14;98582.09;5010667;28;20026;-69
2022/07/19 04:20:10;;;;;;;5.15;3.35;;;;;;;18.62;77.30;98579.72;5010434;28;20022;-69
2022/07/19 04:22:35;;;;;;;5.85;3.83;;;;;;;18.58;78.81;98589.00;5011114;28;20057;-69
2022/07/19 04:25:02;;;;;;;6.65;4.10;;;;;;;18.70;79.03;98572.50;5012380;28;20083;-69
2022/07/19 04:27:28;;;;;;;4.35;3.55;;;;;;;19.21;76.95;98577.75;5005421;28;20084;-68
2022/07/19 04:29:53;;;;;;;6.30;3.58;;;;;;;19.55;74.55;98579.50;4997821;28;20034;-72
2022/07/19 04:32:18;;;;;;;6.45;3.70;;;;;;;20.57;69.83;98587.19;4991095;28;20034;-68
2022/07/19 04:34:44;;;;;;;5.30;3.80;;;;;;;22.28;62.55;98589.34;5009867;28;20057;-69
2022/07/19 04:37:09;;;;;;;8.38;3.72;;;;;;;22.41;60.72;98586.16;5010570;28;20057;-69
2022/07/19 04:39:34;;;;;;;5.35;3.50;;;;;;;22.04;61.75;98595.88;5010618;28;20030;-71
2022/07/19 04:42:00;;;;;;;6.15;3.75;;;;;;;21.50;63.75;98597.38;5010651;28;20156;-69
2022/07/19 04:44:25;;;;;;;6.45;3.42;;;;;;;21.23;65.01;98598.94;5010386;28;20026;-70
2022/07/19 04:46:50;;;;;;;7.40;3.92;;;;;;;20.85;66.52;98602.03;4991824;28;20019;-68
2022/07/19 04:49:15;;;;;;;6.65;4.90;;;;;;;20.06;70.04;98592.13;4990731;28;20034;-69
2022/07/19 04:51:41;;;;;;;5.95;3.40;;;;;;;19.93;70.55;98596.00;4992418;28;20034;-69
2022/07/19 04:54:06;;;;;;;5.13;3.40;;;;;;;20.06;69.07;98594.06;4993832;28;20029;-68
2022/07/19 04:56:31;;;;;;;5.68;3.75;;;;;;;20.96;65.19;98599.59;4991030;28;20026;-69
2022/07/19 04:58:57;;;;;;;5.15;3.42;;;;;;;22.04;61.18;98595.03;4993105;28;20033;-69
2022/07/19 05:01:22;;;;;;;5.35;3.72;;;;;;;23.16;57.35;98591.66;4994588;28;20056;-71
2022/07/19 05:03:47;;;;;;;6.20;3.53;;;;;;;22.51;58.17;98597.94;4994412;28;20535;-69
2022/07/19 05:06:13;;;;;;;5.78;3.30;;;;;;;20.79;63.20;98601.47;4994841;28;20037;-69
2022/07/19 05:08:38;;;;;;;5.30;3.67;;;;;;;20.78;64.24;98604.59;4994317;28;20043;-69
2022/07/19 05:11:03;;;;;;;4.20;3.53;;;;;;;21.41;61.89;98608.66;4994450;28;20884;-69
2022/07/19 05:13:29;;;;;;;4.18;3.40;;;;;;;21.13;63.04;98600.22;4976980;28;20598;-69
2022/07/19 05:15:54;;;;;;;6.18;3.65;;;;;;;20.65;65.28;98600.16;4994252;28;20026;-69
2022/07/19 05:18:19;;;;;;;4.25;3.30;;;;;;;20.48;66.03;98603.16;4994114;28;20109;-69
2022/07/19 05:20:45;;;;;;;6.43;3.58;;;;;;;20.61;66.03;98605.59;4993907;28;20033;-70
2022/07/19 05:23:10;;;;;;;6.85;3.63;;;;;;;20.68;65.26;98599.47;5010966;28;20060;-70
2022/07/19 05:25:35;;;;;;;5.18;3.45;;;;;;;20.63;65.39;98602.47;5013499;28;20084;-69
2022/07/19 05:28:00;;;;;;;8.73;3.60;;;;;;;20.81;65.06;98603.88;5013794;28;20040;-70
2022/07/19 05:30:26;;;;;;;5.70;3.45;;;;;;;20.78;64.66;98587.91;5013752;28;20049;-70
2022/07/19 05:32:51;;;;;;;5.20;3.50;;;;;;;20.77;64.19;98616.84;5013625;28;20030;-70
2022/07/19 05:35:16;;;;;;;4.38;3.30;;;;;;;20.96;63.19;98603.19;5013694;28;20045;-70
2022/07/19 05:37:42;;;;;;;6.75;3.30;;;;;;;21.09;62.83;98599.28;5013370;28;20364;-70
2022/07/19 05:40:08;;;;;;;5.10;3.10;;;;;;;21.17;62.95;98601.16;5013596;28;20022;-69
2022/07/19 05:42:33;;;;;;;5.57;3.40;;;;;;;21.17;62.85;98601.16;5013473;28;20108;-69
2022/07/19 05:44:58;;;;;;;5.05;3.67;;;;;;;21.00;64.27;98601.34;5013321;28;20041;-69
2022/07/19 05:47:24;;;;;;;6.72;4.47;;;;;;;21.02;64.49;98603.81;5013427;28;20026;-69
2022/07/19 05:49:49;;;;;;;6.70;4.50;;;;;;;21.02;64.96;98607.38;5013211;28;20962;-69
2022/07/19 05:52:14;;;;;;;5.63;4.03;;;;;;;20.95;64.76;98604.38;5013584;28;20072;-71
2022/07/19 05:54:40;;;;;;;4.95;3.92;;;;;;;20.62;66.30;98598.06;5013142;28;20053;-70
2022/07/19 05:57:05;;;;;;;5.75;4.32;;;;;;;20.90;65.19;98599.03;5012175;28;20037;-70
2022/07/19 05:59:30;;;;;;;8.70;4.75;;;;;;;21.22;63.66;98595.34;5012808;28;20080;-70
2022/07/19 06:01:55;;;;;;;5.75;3.70;;;;;;;21.19;63.53;98593.25;5012340;28;20022;-70
2022/07/19 06:04:21;;;;;;;5.68;4.05;;;;;;;21.55;62.40;98597.94;5012420;28;20033;-70
2022/07/19 06:06:46;;;;;;;7.88;3.60;;;;;;;21.94;61.22;98596.38;5013366;28;20403;-70
2022/07/19 06:09:12;;;;;;;8.07;4.40;;;;;;;21.75;61.57;98588.63;5012446;28;20030;-70
2022/07/19 06:11:40;;;;;;;6.13;4.45;;;;;;;21.88;61.81;98594.97;5012949;28;20033;-69
2022/07/19 06:14:08;;;;;;;10.20;4.63;;;;;;;21.65;61.67;98594.69;5012869;28;20038;-70
2022/07/19 06:16:33;;;;;;;10.13;4.75;;;;;;;21.66;61.49;98598.28;5012797;28;20807;-70
2022/07/19 06:18:59;;;;;;;11.45;4.50;;;;;;;21.69;61.19;98592.81;5012645;28;20026;-69
2022/07/19 06:21:24;;;;;;;6.15;4.30;;;;;;;21.75;60.54;98588.63;5012588;28;20034;-69
2022/07/19 06:23:50;;;;;;;5.88;4.40;;;;;;;22.02;60.00;98598.16;5011857;28;20395;-69
2022/07/19 06:26:16;;;;;;;6.68;3.97;;;;;;;21.80;60.00;98588.34;5012324;28;20034;-70
2022/07/19 06:28:42;;;;;;;9.02;4.20;;;;;;;22.00;59.42;98596.91;5012847;28;20036;-71
2022/07/19 06:31:14;;;;;;;8.70;4.28;;;;;;;22.33;58.14;98597.47;5012594;28;20437;-71
2022/07/19 06:33:44;;;;;;;6.25;3.70;;;;;;;22.43;58.17;98602.50;5011765;28;20435;-71
2022/07/19 06:36:10;;;;;;;8.38;3.88;;;;;;;22.60;57.07;98596.59;5012750;28;20054;-70
2022/07/19 06:38:36;;;;;;;4.85;3.75;;;;;;;22.68;57.13;98598.44;5012482;28;20036;-71
2022/07/19 06:41:01;;;;;;;6.25;3.75;;;;;;;22.56;56.82;98597.66;5016136;28;20030;-70
2022/07/19 06:43:26;;;;;;;6.07;3.72;;;;;;;22.51;57.00;98609.09;5012299;28;20045;-71
2022/07/19 06:45:52;;;;;;;5.85;4.05;;;;;;;22.74;56.41;98602.56;5012628;28;20483;-71
2022/07/19 06:48:17;;;;;;;10.75;3.97;;;;;;;22.78;55.94;98594.28;5012741;28;20115;-71
2022/07/19 06:50:43;;;;;;;5.38;3.97;;;;;;;23.28;54.06;98594.34;4994916;28;20037;-70
2022/07/19 06:53:09;;;;;;;6.63;4.30;;;;;;;23.41;53.99;98604.25;5012166;28;20057;-69
2022/07/19 06:55:34;;;;;;;7.70;4.90;;;;;;;23.44;53.57;98599.91;5001478;28;20395;-70
2022/07/19 06:58:00;;;;;;;7.03;4.40;;;;;;;23.61;53.54;98605.13;5002784;28;20026;-70
2022/07/19 07:00:25;;;;;;;7.03;4.20;;;;;;;23.70;53.30;98602.91;5011128;28;20510;-74
2022/07/19 07:02:50;;;;;;;7.85;4.70;;;;;;;23.62;53.42;98597.56;5009621;28;20045;-73
2022/07/19 07:05:16;;;;;;;7.63;4.35;;;;;;;23.63;53.28;98602.75;5011727;28;20033;-72
2022/07/19 07:07:41;;;;;;;8.98;4.43;;;;;;;23.72;53.70;98591.38;5010950;28;20033;-71
2022/07/19 07:10:08;;;;;;;11.05;4.28;;;;;;;23.44;54.07;98592.34;5010677;28;20348;-71
2022/07/19 07:12:34;;;;;;;6.68;4.40;;;;;;;23.75;53.44;98594.25;5008956;28;20030;-71
2022/07/19 07:14:59;;;;;;;6.47;4.53;;;;;;;24.09;52.57;98588.97;5009391;28;20587;-72
2022/07/19 07:17:25;;;;;;;10.48;4.20;;;;;;;24.47;51.59;98594.53;5005630;28;20033;-72
2022/07/19 07:19:52;;;;;;;7.38;3.80;;;;;;;24.77;50.69;98592.69;5005399;28;20030;-71
2022/07/19 07:22:17;;;;;;;5.45;3.95;;;;;;;24.86;50.02;98596.06;5009350;28;20124;-71
2022/07/19 07:24:42;;;;;;;10.05;6.65;;;;;;;24.59;50.75;98590.75;5007726;28;20145;-72
2022/07/19 07:27:08;;;;;;;7.28;4.22;;;;;;;24.88;50.29;98592.88;5008563;28;20048;-72
2022/07/19 07:29:33;;;;;;;7.65;4.20;;;;;;;25.42;49.68;98596.19;5009161;28;20034;-72
2022/07/19 07:31:59;;;;;;;6.18;4.20;;;;;;;25.74;47.81;98591.06;5007820;28;20065;-73
2022/07/19 07:34:24;;;;;;;6.43;3.53;;;;;;;25.97;47.10;98588.13;5007512;28;20045;-72
2022/07/19 07:36:49;;;;;;;5.57;3.80;;;;;;;25.99;46.63;98585.78;5008464;28;20034;-73
2022/07/19 07:39:15;;;;;;;5.75;4.22;;;;;;;25.95;46.84;98584.91;5007196;28;20033;-71
2022/07/19 07:41:40;;;;;;;5.55;3.40;;;;;;;25.73;47.05;98572.63;5007614;28;20038;-71
2022/07/19 07:44:06;;;;;;;9.27;3.97;;;;;;;25.28;47.83;98584.75;5007386;28;20046;-70
2022/07/19 07:46:31;;;;;;;6.70;3.63;;;;;;;25.00;48.50;98579.50;4993246;28;20057;-71
2022/07/19 07:48:57;;;;;;;4.95;3.60;;;;;;;25.77;47.69;98581.91;5008365;28;20092;-73
2022/07/19 07:51:22;;;;;;;7.88;4.07;;;;;;;25.15;48.30;98574.16;5008414;28;20049;-69
2022/07/19 07:53:48;;;;;;;5.68;3.88;;;;;;;25.40;48.33;98578.94;5008497;28;20046;-70
2022/07/19 07:56:13;;;;;;;7.03;3.92;;;;;;;25.36;47.50;98572.47;4993226;28;20522;-70
2022/07/19 07:58:39;;;;;;;5.20;3.72;;;;;;;25.23;46.86;98573.88;5008213;28;20113;-70
2022/07/19 08:01:04;;;;;;;6.57;4.18;;;;;;;25.79;46.39;98573.09;5006231;28;20109;-71
2022/07/19 08:03:29;;;;;;;8.73;3.95;;;;;;;26.15;45.78;98560.31;5005575;28;20068;-70
2022/07/19 08:05:57;;;;;;;4.75;3.58;;;;;;;26.55;44.51;98566.81;5006086;28;20034;-70
2022/07/19 08:08:26;;;;;;;5.50;3.78;;;;;;;26.77;44.26;98572.63;5010349;28;20037;-70
2022/07/19 08:10:56;;;;;;;7.32;3.95;;;;;;;26.97;43.17;98568.41;5008188;28;20041;-71
2022/07/19 08:13:22;;;;;;;6.85;4.20;;;;;;;27.30;42.82;98564.63;5007117;28;20037;-71
2022/07/19 08:15:48;;;;;;;6.63;3.90;;;;;;;27.47;41.37;98564.78;5005973;28;20026;-70
2022/07/19 08:18:14;;;;;;;8.70;3.58;;;;;;;27.37;41.39;98565.50;5006707;28;20026;-70
2022/07/19 08:20:39;;;;;;;9.02;4.30;;;;;;;27.53;40.86;98560.44;4989385;28;20053;-75
2022/07/19 08:23:05;;;;;;;7.85;3.67;;;;;;;27.40;41.04;98564.72;5004951;28;20036;-70
2022/07/19 08:25:32;;;;;;;5.10;3.45;;;;;;;27.54;40.48;98556.41;5006485;28;20112;-71
2022/07/19 08:27:57;;;;;;;4.55;3.53;;;;;;;27.65;40.86;98548.84;5006726;28;20034;-72
2022/07/19 08:30:23;;;;;;;6.80;3.70;;;;;;;28.05;40.91;98555.47;5006827;28;20029;-72
2022/07/19 08:32:48;;;;;;;6.28;3.58;;;;;;;28.16;39.88;98550.69;5006554;28;20116;-75
2022/07/19 08:35:13;;;;;;;4.88;3.13;;;;;;;28.12;39.31;98556.31;5007353;28;20042;-73
2022/07/19 08:37:40;;;;;;;5.43;3.40;;;;;;;28.11;39.05;98548.25;5007888;28;20068;-72
2022/07/19 08:40:06;;;;;;;5.55;3.00;;;;;;;28.34;38.32;98543.09;5008299;28;20575;-72
2022/07/19 08:42:32;;;;;;;4.05;2.90;;;;;;;28.61;37.51;98540.72;5007752;28;20026;-71
2022/07/19 08:45:01;;;;;;;4.65;3.38;;;;;;;29.10;35.58;98542.78;5007417;28;20525;-71
2022/07/19 08:47:29;;;;;;;5.45;4.00;;;;;;;28.93;34.81;98543.59;5007818;28;20030;-71
2022/07/19 08:49:57;;;;;;;4.43;2.85;;;;;;;28.74;35.34;98535.53;5007896;28;20567;-70
2022/07/19 08:52:23;;;;;;;5.32;3.55;;;;;;;28.73;35.53;98539.53;5008256;28;20033;-71
2022/07/19 08:54:49;;;;;;;5.90;3.38;;;;;;;28.79;35.58;98535.94;4991196;28;20109;-70
2022/07/19 08:59:58;;;;;;;6.13;3.33;;;;;;;28.96;35.81;98537.13;5010719;28;20418;-71
2022/07/19 09:02:23;;;;;;;4.57;3.15;;;;;;;29.50;34.24;98538.72;5010533;28;20021;-70
2022/07/19 09:05:05;;;;;;;7.53;3.15;;;;;;;29.45;33.74;98536.28;5009537;28;20113;-72
2022/07/19 09:07:30;;;;;;;6.60;3.08;;;;;;;29.04;34.62;98528.28;5010462;28;20022;-70
2022/07/19 09:10:17;;;;;;;5.95;3.47;;;;;;;29.32;33.56;98529.50;4992035;28;20116;-71
2022/07/19 09:13:00;;;;;;;6.43;3.08;;;;;;;29.16;34.30;98529.88;5008186;28;20083;-71
2022/07/19 09:15:36;;;;;;;6.15;3.33;;;;;;;29.59;33.90;98525.00;5007681;28;20137;-70
2022/07/19 09:18:06;;;;;;;4.97;2.75;;;;;;;29.76;33.30;98524.91;5009807;28;20438;-71
2022/07/19 09:20:31;;;;;;;6.13;2.65;;;;;;;29.58;33.65;98529.81;5010121;28;20036;-71
2022/07/19 09:22:57;;;;;;;4.60;2.92;;;;;;;29.20;34.41;98528.66;5010360;28;20045;-72
2022/07/19 09:25:36;;;;;;;6.90;3.50;;;;;;;29.00;34.34;98521.84;5010105;28;20045;-73
2022/07/19 09:28:05;;;;;;;4.47;2.85;;;;;;;28.21;35.06;98516.53;5010314;28;20279;-73
2022/07/19 09:30:39;;;;;;;3.70;2.53;;;;;;;28.39;35.14;98516.53;5010173;28;20022;-72
2022/07/19 09:33:06;;;;;;;4.77;3.50;;;;;;;28.05;35.61;98510.44;5010292;28;20387;-70
2022/07/19 09:35:41;;;;;;;3.78;3.00;;;;;;;28.50;35.31;98515.38;5010408;28;20291;-71
2022/07/19 09:38:25;;;;;;;4.18;3.15;;;;;;;28.12;35.40;98505.66;5009491;28;20048;-72
2022/07/19 09:40:54;;;;;;;5.57;3.10;;;;;;;28.62;34.99;98512.16;5009971;28;20100;-71
2022/07/19 09:43:22;;;;;;;5.50;2.88;;;;;;;28.72;34.32;98509.78;5010068;28;20026;-74
2022/07/19 09:45:48;;;;;;;6.65;2.88;;;;;;;28.74;34.74;98513.00;5013341;28;20026;-72
2022/07/19 09:48:13;;;;;;;3.97;3.15;;;;;;;28.91;34.10;98506.56;5013516;28;20038;-72
2022/07/19 09:50:41;;;;;;;3.65;2.38;;;;;;;28.70;34.58;98508.16;5013534;28;20030;-73
2022/07/19 09:53:06;;;;;;;3.60;2.80;;;;;;;28.84;34.66;98500.91;5013660;28;20387;-73
2022/07/19 09:55:32;;;;;;;3.70;2.75;;;;;;;29.13;34.76;98499.69;5010610;28;20017;-72
2022/07/19 09:57:59;;;;;;;4.80;2.80;;;;;;;28.98;34.89;98500.91;5006883;28;20072;-73
2022/07/19 10:00:25;;;;;;;3.50;2.60;;;;;;;29.08;34.54;98498.06;5011103;28;20026;-74
2022/07/19 10:02:59;;;;;;;6.18;3.10;;;;;;;29.34;35.15;98494.03;5010491;28;20022;-74
2022/07/19 10:05:26;;;;;;;3.50;2.20;;;;;;;29.26;34.24;98486.00;5012653;28;20026;-74
2022/07/19 10:07:52;;;;;;;5.93;3.10;;;;;;;28.73;37.03;98492.47;5012783;28;20038;-72
2022/07/19 10:10:20;;;;;;;4.30;2.90;;;;;;;29.12;36.21;98492.44;5011792;28;20060;-73
2022/07/19 10:12:48;;;;;;;5.07;2.97;;;;;;;29.52;35.89;98486.31;5012167;28;20021;-73
2022/07/19 10:15:16;;;;;;;4.65;3.30;;;;;;;29.65;35.48;98493.13;5012002;28;20490;-74
2022/07/19 10:17:48;;;;;;;4.90;2.90;;;;;;;29.98;34.95;98493.84;5009703;28;20026;-73
2022/07/19 10:20:20;;;;;;;5.75;3.10;;;;;;;29.92;35.60;98489.81;5011656;28;20045;-72
2022/07/19 10:22:46;;;;;;;5.10;3.05;;;;;;;30.47;34.66;98478.63;5009866;28;20430;-73
2022/07/19 10:25:15;;;;;;;3.83;2.80;;;;;;;31.01;34.02;98480.63;4996684;28;20079;-72
2022/07/19 10:27:43;;;;;;;5.93;2.78;;;;;;;30.37;34.72;98476.63;5006693;28;20030;-72
2022/07/19 10:30:12;;;;;;;6.25;2.92;;;;;;;30.60;34.48;98483.38;5011038;28;20030;-72
2022/07/19 10:32:43;;;;;;;5.38;2.80;;;;;;;31.09;33.51;98481.34;5011711;28;20071;-72
2022/07/19 10:35:18;;;;;;;4.10;2.80;;;;;;;30.69;33.33;98492.16;5011379;28;20054;-72
2022/07/19 10:37:49;;;;;;;3.50;2.35;;;;;;;30.40;32.30;98489.97;5011836;28;20096;-72
2022/07/19 10:40:37;;;;;;;9.38;3.75;;;;;;;29.78;33.54;98487.84;5011628;28;20038;-73
2022/07/19 10:43:07;;;;;;;4.18;2.90;;;;;;;30.51;32.49;98485.84;5011811;28;20041;-72
2022/07/19 10:45:33;;;;;;;3.13;2.45;;;;;;;30.89;31.03;98478.25;4992403;28;20025;-73
2022/07/19 10:48:01;;;;;;;4.63;2.92;;;;;;;30.95;28.78;98484.31;5009300;28;20323;-72
2022/07/19 10:50:46;;;;;;;6.60;2.42;;;;;;;31.00;29.72;98475.38;5011362;28;20030;-72
2022/07/19 10:53:41;;;;;;;3.55;2.63;;;;;;;31.22;29.59;98474.75;5009015;28;20021;-72
2022/07/19 10:56:16;;;;;;;3.45;2.58;;;;;;;30.40;29.31;98473.81;5007693;28;20033;-75
2022/07/19 10:58:51;;;;;;;3.40;2.45;;;;;;;30.44;30.22;98471.78;5009964;28;20138;-73
2022/07/19 11:01:19;;;;;;;5.28;2.80;;;;;;;31.03;29.42;98468.88;5008082;28;20501;-73
2022/07/19 11:03:46;;;;;;;3.45;2.47;;;;;;;31.27;28.48;98476.28;5010299;28;20033;-74
2022/07/19 11:06:22;;;;;;;4.03;2.53;;;;;;;31.28;27.75;98469.41;5007415;28;20038;-74
2022/07/19 11:08:48;;;;;;;3.75;2.45;;;;;;;30.79;28.04;98465.03;4991214;28;20421;-74
2022/07/19 11:11:17;;;;;;;3.15;2.47;;;;;;;30.89;27.82;98466.94;5009956;28;20025;-74
2022/07/19 11:13:45;;;;;;;3.95;2.70;;;;;;;30.03;28.95;98456.69;5010239;28;20041;-73
2022/07/19 11:16:11;;;;;;;8.70;2.42;;;;;;;29.81;28.91;98463.63;5010003;28;20486;-73
2022/07/19 11:18:36;;;;;;;4.93;2.58;;;;;;;30.56;28.40;98459.97;5009678;28;20044;-74
2022/07/19 11:21:04;;;;;;;3.88;2.45;;;;;;;31.13;27.57;98448.19;5009440;28;20022;-74
2022/07/19 11:23:32;;;;;;;2.92;2.22;;;;;;;31.51;27.23;98444.13;5009254;28;20034;-75
2022/07/19 11:26:12;;;;;;;3.25;2.33;;;;;;;31.31;26.99;98440.28;5009147;28;20103;-73
2022/07/19 11:28:42;;;;;;;3.40;2.30;;;;;;;31.47;26.71;98445.38;5009346;28;20029;-72
2022/07/19 11:31:21;;;;;;;9.82;2.33;;;;;;;31.11;26.73;98440.09;5007005;28;20026;-73
2022/07/19 11:33:56;;;;;;;2.83;2.00;;;;;;;30.42;26.97;98437.47;5007275;28;20026;-73
2022/07/19 11:36:21;;;;;;;;;;;;;;;30.38;27.00;98430.25;5010205;28;20057;-71